sensor_id;sensor_type;location;lat;lon;timestamp;P1;durP1;ratioP1;P2;durP2;ratioP2
33138;SDS011;19501;50.948;5.316;2022-12-18T00:01:01;103.47;;;37.88;;
33138;SDS011;19501;50.948;5.316;2022-12-18T00:03:31;98.88;;;38.33;;
33138;SDS011;19501;50.948;5.316;2022-12-18T00:06:01;96.50;;;38.00;;
33138;SDS011;19501;50.948;5.316;2022-12-18T00:08:27;99.70;;;38.03;;
33138;SDS011;19501;50.948;5.316;2022-12-18T00:10:53;91.88;;;38.80;;
33138;SDS011;19501;50.948;5.316;2022-12-18T00:13:19;97.53;;;38.03;;
33138;SDS011;19501;50.948;5.316;2022-12-18T00:15:45;97.78;;;39.88;;
33138;SDS011;19501;50.948;5.316;2022-12-18T00:18:10;110.40;;;39.10;;
33138;SDS011;19501;50.948;5.316;2022-12-18T00:20:36;99.93;;;40.10;;
33138;SDS011;19501;50.948;5.316;2022-12-18T00:23:04;100.72;;;41.30;;
33138;SDS011;19501;50.948;5.316;2022-12-18T00:25:34;102.95;;;41.90;;
33138;SDS011;19501;50.948;5.316;2022-12-18T00:28:02;107.05;;;43.55;;
33138;SDS011;19501;50.948;5.316;2022-12-18T00:30:29;106.47;;;42.45;;
33138;SDS011;19501;50.948;5.316;2022-12-18T00:32:55;147.73;;;53.22;;
33138;SDS011;19501;50.948;5.316;2022-12-18T00:35:22;125.40;;;48.42;;
33138;SDS011;19501;50.948;5.316;2022-12-18T00:37:48;130.00;;;48.33;;
33138;SDS011;19501;50.948;5.316;2022-12-18T00:40:15;119.35;;;44.47;;
33138;SDS011;19501;50.948;5.316;2022-12-18T00:42:41;106.97;;;42.30;;
33138;SDS011;19501;50.948;5.316;2022-12-18T00:45:24;98.47;;;40.87;;
33138;SDS011;19501;50.948;5.316;2022-12-18T00:47:50;97.43;;;37.67;;
33138;SDS011;19501;50.948;5.316;2022-12-18T00:50:17;94.65;;;38.10;;
33138;SDS011;19501;50.948;5.316;2022-12-18T00:52:45;98.50;;;37.45;;
33138;SDS011;19501;50.948;5.316;2022-12-18T00:55:12;102.57;;;36.95;;
33138;SDS011;19501;50.948;5.316;2022-12-18T00:57:38;98.18;;;38.45;;
33138;SDS011;19501;50.948;5.316;2022-12-18T01:00:05;96.53;;;37.08;;
33138;SDS011;19501;50.948;5.316;2022-12-18T01:02:32;83.70;;;37.50;;
33138;SDS011;19501;50.948;5.316;2022-12-18T01:04:58;92.32;;;36.22;;
33138;SDS011;19501;50.948;5.316;2022-12-18T01:07:23;88.75;;;35.17;;
33138;SDS011;19501;50.948;5.316;2022-12-18T01:09:49;91.97;;;36.40;;
33138;SDS011;19501;50.948;5.316;2022-12-18T01:12:15;90.15;;;34.22;;
33138;SDS011;19501;50.948;5.316;2022-12-18T01:14:40;93.95;;;34.75;;
33138;SDS011;19501;50.948;5.316;2022-12-18T01:17:06;88.63;;;35.50;;
33138;SDS011;19501;50.948;5.316;2022-12-18T01:19:32;81.32;;;32.40;;
33138;SDS011;19501;50.948;5.316;2022-12-18T01:21:58;88.28;;;34.63;;
33138;SDS011;19501;50.948;5.316;2022-12-18T01:24:24;75.78;;;33.42;;
33138;SDS011;19501;50.948;5.316;2022-12-18T01:26:50;83.85;;;35.22;;
33138;SDS011;19501;50.948;5.316;2022-12-18T01:29:16;91.50;;;33.88;;
33138;SDS011;19501;50.948;5.316;2022-12-18T01:31:42;90.00;;;34.17;;
33138;SDS011;19501;50.948;5.316;2022-12-18T01:34:08;101.90;;;38.85;;
33138;SDS011;19501;50.948;5.316;2022-12-18T01:36:35;88.63;;;35.20;;
33138;SDS011;19501;50.948;5.316;2022-12-18T01:39:04;86.53;;;35.55;;
33138;SDS011;19501;50.948;5.316;2022-12-18T01:41:33;89.80;;;33.03;;
33138;SDS011;19501;50.948;5.316;2022-12-18T01:53:16;76.85;;;31.13;;
33138;SDS011;19501;50.948;5.316;2022-12-18T01:55:42;78.97;;;32.28;;
33138;SDS011;19501;50.948;5.316;2022-12-18T01:58:14;78.45;;;31.42;;
33138;SDS011;19501;50.948;5.316;2022-12-18T02:00:40;78.05;;;31.67;;
33138;SDS011;19501;50.948;5.316;2022-12-18T02:03:06;74.72;;;30.35;;
33138;SDS011;19501;50.948;5.316;2022-12-18T02:05:39;77.95;;;30.35;;
33138;SDS011;19501;50.948;5.316;2022-12-18T02:11:18;65.45;;;25.80;;
33138;SDS011;19501;50.948;5.316;2022-12-18T02:14:10;77.72;;;29.30;;
33138;SDS011;19501;50.948;5.316;2022-12-18T02:19:58;74.90;;;29.27;;
33138;SDS011;19501;50.948;5.316;2022-12-18T02:25:13;73.80;;;29.42;;
33138;SDS011;19501;50.948;5.316;2022-12-18T02:28:03;70.60;;;29.92;;
33138;SDS011;19501;50.948;5.316;2022-12-18T02:30:31;73.28;;;29.85;;
33138;SDS011;19501;50.948;5.316;2022-12-18T02:32:59;75.75;;;29.38;;
33138;SDS011;19501;50.948;5.316;2022-12-18T02:35:27;78.10;;;30.35;;
33138;SDS011;19501;50.948;5.316;2022-12-18T02:37:55;77.50;;;30.33;;
33138;SDS011;19501;50.948;5.316;2022-12-18T02:40:24;77.32;;;30.92;;
33138;SDS011;19501;50.948;5.316;2022-12-18T02:42:52;76.97;;;29.30;;
33138;SDS011;19501;50.948;5.316;2022-12-18T02:45:18;82.68;;;31.02;;
33138;SDS011;19501;50.948;5.316;2022-12-18T02:47:47;77.70;;;30.05;;
33138;SDS011;19501;50.948;5.316;2022-12-18T02:50:34;80.03;;;29.73;;
33138;SDS011;19501;50.948;5.316;2022-12-18T02:55:39;79.43;;;27.60;;
33138;SDS011;19501;50.948;5.316;2022-12-18T02:58:21;83.32;;;29.13;;
33138;SDS011;19501;50.948;5.316;2022-12-18T03:00:59;75.78;;;30.33;;
33138;SDS011;19501;50.948;5.316;2022-12-18T03:03:39;83.78;;;29.80;;
33138;SDS011;19501;50.948;5.316;2022-12-18T03:09:01;74.18;;;29.20;;
33138;SDS011;19501;50.948;5.316;2022-12-18T03:11:32;69.53;;;27.35;;
33138;SDS011;19501;50.948;5.316;2022-12-18T03:14:20;74.45;;;28.30;;
33138;SDS011;19501;50.948;5.316;2022-12-18T03:16:49;75.70;;;29.83;;
33138;SDS011;19501;50.948;5.316;2022-12-18T03:19:18;70.43;;;27.63;;
33138;SDS011;19501;50.948;5.316;2022-12-18T03:21:56;74.45;;;27.92;;
33138;SDS011;19501;50.948;5.316;2022-12-18T03:24:24;72.53;;;27.65;;
33138;SDS011;19501;50.948;5.316;2022-12-18T03:26:54;67.30;;;27.70;;
33138;SDS011;19501;50.948;5.316;2022-12-18T03:29:27;71.43;;;28.38;;
33138;SDS011;19501;50.948;5.316;2022-12-18T03:32:05;74.80;;;28.00;;
33138;SDS011;19501;50.948;5.316;2022-12-18T03:34:41;70.45;;;27.30;;
33138;SDS011;19501;50.948;5.316;2022-12-18T03:37:14;71.97;;;26.85;;
33138;SDS011;19501;50.948;5.316;2022-12-18T03:39:40;72.30;;;27.20;;
33138;SDS011;19501;50.948;5.316;2022-12-18T03:42:17;67.85;;;26.27;;
33138;SDS011;19501;50.948;5.316;2022-12-18T03:48:04;68.65;;;27.42;;
33138;SDS011;19501;50.948;5.316;2022-12-18T03:50:39;68.00;;;24.25;;
33138;SDS011;19501;50.948;5.316;2022-12-18T03:53:15;67.22;;;24.67;;
33138;SDS011;19501;50.948;5.316;2022-12-18T03:55:53;46.55;;;20.10;;
33138;SDS011;19501;50.948;5.316;2022-12-18T03:58:25;64.68;;;25.73;;
33138;SDS011;19501;50.948;5.316;2022-12-18T04:00:53;63.50;;;25.00;;
33138;SDS011;19501;50.948;5.316;2022-12-18T04:03:21;64.75;;;24.58;;
33138;SDS011;19501;50.948;5.316;2022-12-18T04:05:50;66.28;;;25.67;;
33138;SDS011;19501;50.948;5.316;2022-12-18T04:08:18;65.88;;;24.77;;
33138;SDS011;19501;50.948;5.316;2022-12-18T04:10:44;72.35;;;26.02;;
33138;SDS011;19501;50.948;5.316;2022-12-18T04:13:10;62.55;;;24.75;;
33138;SDS011;19501;50.948;5.316;2022-12-18T04:15:36;69.07;;;25.08;;
33138;SDS011;19501;50.948;5.316;2022-12-18T04:18:02;61.45;;;24.05;;
33138;SDS011;19501;50.948;5.316;2022-12-18T04:20:29;62.90;;;24.25;;
33138;SDS011;19501;50.948;5.316;2022-12-18T04:22:56;66.65;;;25.92;;
33138;SDS011;19501;50.948;5.316;2022-12-18T04:25:23;60.75;;;25.63;;
33138;SDS011;19501;50.948;5.316;2022-12-18T04:27:48;65.97;;;25.38;;
33138;SDS011;19501;50.948;5.316;2022-12-18T04:30:15;58.42;;;24.20;;
33138;SDS011;19501;50.948;5.316;2022-12-18T04:32:43;61.15;;;22.95;;
33138;SDS011;19501;50.948;5.316;2022-12-18T04:35:08;62.63;;;24.80;;
33138;SDS011;19501;50.948;5.316;2022-12-18T04:37:35;64.65;;;24.65;;
33138;SDS011;19501;50.948;5.316;2022-12-18T04:40:01;64.30;;;24.67;;
33138;SDS011;19501;50.948;5.316;2022-12-18T04:42:27;67.63;;;24.05;;
33138;SDS011;19501;50.948;5.316;2022-12-18T04:44:52;76.70;;;28.23;;
33138;SDS011;19501;50.948;5.316;2022-12-18T04:47:19;62.75;;;25.67;;
33138;SDS011;19501;50.948;5.316;2022-12-18T04:49:44;60.38;;;24.48;;
33138;SDS011;19501;50.948;5.316;2022-12-18T04:52:10;65.18;;;24.90;;
33138;SDS011;19501;50.948;5.316;2022-12-18T04:54:35;66.68;;;24.88;;
33138;SDS011;19501;50.948;5.316;2022-12-18T04:57:01;60.15;;;24.45;;
33138;SDS011;19501;50.948;5.316;2022-12-18T04:59:27;61.83;;;24.35;;
33138;SDS011;19501;50.948;5.316;2022-12-18T05:01:52;65.43;;;25.30;;
33138;SDS011;19501;50.948;5.316;2022-12-18T05:04:18;70.85;;;27.27;;
33138;SDS011;19501;50.948;5.316;2022-12-18T05:06:44;63.83;;;25.00;;
33138;SDS011;19501;50.948;5.316;2022-12-18T05:09:10;66.90;;;25.38;;
33138;SDS011;19501;50.948;5.316;2022-12-18T05:11:36;62.53;;;26.02;;
33138;SDS011;19501;50.948;5.316;2022-12-18T05:14:02;58.60;;;22.92;;
33138;SDS011;19501;50.948;5.316;2022-12-18T05:16:28;53.10;;;23.25;;
33138;SDS011;19501;50.948;5.316;2022-12-18T05:18:53;60.55;;;23.80;;
33138;SDS011;19501;50.948;5.316;2022-12-18T05:21:19;64.85;;;24.92;;
33138;SDS011;19501;50.948;5.316;2022-12-18T05:23:44;57.47;;;21.70;;
33138;SDS011;19501;50.948;5.316;2022-12-18T05:26:11;60.80;;;23.08;;
33138;SDS011;19501;50.948;5.316;2022-12-18T05:28:41;61.90;;;23.85;;
33138;SDS011;19501;50.948;5.316;2022-12-18T05:31:06;52.80;;;23.52;;
33138;SDS011;19501;50.948;5.316;2022-12-18T05:33:33;65.95;;;23.63;;
33138;SDS011;19501;50.948;5.316;2022-12-18T05:36:00;60.92;;;23.67;;
33138;SDS011;19501;50.948;5.316;2022-12-18T05:38:27;59.50;;;22.80;;
33138;SDS011;19501;50.948;5.316;2022-12-18T05:40:54;59.05;;;23.63;;
33138;SDS011;19501;50.948;5.316;2022-12-18T05:43:20;56.78;;;24.70;;
33138;SDS011;19501;50.948;5.316;2022-12-18T05:45:46;63.53;;;23.90;;
33138;SDS011;19501;50.948;5.316;2022-12-18T05:48:13;58.05;;;23.48;;
33138;SDS011;19501;50.948;5.316;2022-12-18T05:50:40;55.38;;;21.67;;
33138;SDS011;19501;50.948;5.316;2022-12-18T05:53:07;61.80;;;23.00;;
33138;SDS011;19501;50.948;5.316;2022-12-18T05:55:37;54.35;;;21.92;;
33138;SDS011;19501;50.948;5.316;2022-12-18T05:58:05;54.03;;;22.67;;
33138;SDS011;19501;50.948;5.316;2022-12-18T06:00:33;53.60;;;22.38;;
33138;SDS011;19501;50.948;5.316;2022-12-18T06:03:00;51.28;;;20.77;;
33138;SDS011;19501;50.948;5.316;2022-12-18T06:05:27;56.83;;;22.65;;
33138;SDS011;19501;50.948;5.316;2022-12-18T06:07:53;53.95;;;21.35;;
33138;SDS011;19501;50.948;5.316;2022-12-18T06:10:19;46.33;;;20.17;;
33138;SDS011;19501;50.948;5.316;2022-12-18T06:12:45;53.35;;;21.55;;
33138;SDS011;19501;50.948;5.316;2022-12-18T06:15:11;55.97;;;21.35;;
33138;SDS011;19501;50.948;5.316;2022-12-18T06:17:39;48.60;;;20.98;;
33138;SDS011;19501;50.948;5.316;2022-12-18T06:20:05;50.53;;;20.13;;
33138;SDS011;19501;50.948;5.316;2022-12-18T06:22:31;56.05;;;19.58;;
33138;SDS011;19501;50.948;5.316;2022-12-18T06:24:58;50.83;;;21.60;;
33138;SDS011;19501;50.948;5.316;2022-12-18T06:27:24;56.67;;;23.17;;
33138;SDS011;19501;50.948;5.316;2022-12-18T06:29:50;56.35;;;23.20;;
33138;SDS011;19501;50.948;5.316;2022-12-18T06:32:15;59.40;;;23.17;;
33138;SDS011;19501;50.948;5.316;2022-12-18T06:34:41;62.13;;;24.35;;
33138;SDS011;19501;50.948;5.316;2022-12-18T06:37:07;54.08;;;23.45;;
33138;SDS011;19501;50.948;5.316;2022-12-18T06:39:32;52.13;;;21.88;;
33138;SDS011;19501;50.948;5.316;2022-12-18T06:41:59;50.95;;;21.17;;
33138;SDS011;19501;50.948;5.316;2022-12-18T06:44:24;47.97;;;19.92;;
33138;SDS011;19501;50.948;5.316;2022-12-18T06:46:50;45.80;;;20.10;;
33138;SDS011;19501;50.948;5.316;2022-12-18T06:49:15;55.40;;;20.38;;
33138;SDS011;19501;50.948;5.316;2022-12-18T06:51:41;50.97;;;20.25;;
33138;SDS011;19501;50.948;5.316;2022-12-18T06:54:07;42.58;;;18.08;;
33138;SDS011;19501;50.948;5.316;2022-12-18T06:56:33;46.92;;;18.58;;
33138;SDS011;19501;50.948;5.316;2022-12-18T06:58:59;45.90;;;19.17;;
33138;SDS011;19501;50.948;5.316;2022-12-18T07:01:25;48.70;;;20.48;;
33138;SDS011;19501;50.948;5.316;2022-12-18T07:03:51;49.70;;;21.75;;
33138;SDS011;19501;50.948;5.316;2022-12-18T07:06:22;44.95;;;19.45;;
33138;SDS011;19501;50.948;5.316;2022-12-18T07:08:50;48.97;;;19.35;;
33138;SDS011;19501;50.948;5.316;2022-12-18T07:11:19;43.90;;;18.20;;
33138;SDS011;19501;50.948;5.316;2022-12-18T07:13:45;46.67;;;19.10;;
33138;SDS011;19501;50.948;5.316;2022-12-18T07:16:13;46.38;;;18.45;;
33138;SDS011;19501;50.948;5.316;2022-12-18T07:18:40;49.03;;;18.35;;
33138;SDS011;19501;50.948;5.316;2022-12-18T07:21:08;52.83;;;18.98;;
33138;SDS011;19501;50.948;5.316;2022-12-18T07:23:36;49.42;;;20.92;;
33138;SDS011;19501;50.948;5.316;2022-12-18T07:26:06;53.00;;;20.27;;
33138;SDS011;19501;50.948;5.316;2022-12-18T07:28:34;44.55;;;18.30;;
33138;SDS011;19501;50.948;5.316;2022-12-18T07:31:04;48.83;;;17.55;;
33138;SDS011;19501;50.948;5.316;2022-12-18T07:33:35;43.60;;;17.55;;
33138;SDS011;19501;50.948;5.316;2022-12-18T07:36:01;39.60;;;16.48;;
33138;SDS011;19501;50.948;5.316;2022-12-18T07:38:31;42.58;;;15.50;;
33138;SDS011;19501;50.948;5.316;2022-12-18T07:41:04;44.85;;;17.02;;
33138;SDS011;19501;50.948;5.316;2022-12-18T07:43:40;45.28;;;17.95;;
33138;SDS011;19501;50.948;5.316;2022-12-18T07:46:06;38.80;;;17.15;;
33138;SDS011;19501;50.948;5.316;2022-12-18T07:48:33;45.58;;;17.42;;
33138;SDS011;19501;50.948;5.316;2022-12-18T07:51:00;47.50;;;19.88;;
33138;SDS011;19501;50.948;5.316;2022-12-18T07:53:29;46.60;;;18.02;;
33138;SDS011;19501;50.948;5.316;2022-12-18T07:55:55;43.45;;;18.48;;
33138;SDS011;19501;50.948;5.316;2022-12-18T07:58:25;45.13;;;17.52;;
33138;SDS011;19501;50.948;5.316;2022-12-18T08:00:51;41.63;;;18.35;;
33138;SDS011;19501;50.948;5.316;2022-12-18T08:03:17;49.00;;;19.95;;
33138;SDS011;19501;50.948;5.316;2022-12-18T08:05:43;48.45;;;18.90;;
33138;SDS011;19501;50.948;5.316;2022-12-18T08:08:09;45.35;;;18.65;;
33138;SDS011;19501;50.948;5.316;2022-12-18T08:10:36;45.00;;;17.90;;
33138;SDS011;19501;50.948;5.316;2022-12-18T08:13:03;45.05;;;17.55;;
33138;SDS011;19501;50.948;5.316;2022-12-18T08:15:28;42.88;;;18.73;;
33138;SDS011;19501;50.948;5.316;2022-12-18T08:17:56;50.42;;;20.48;;
33138;SDS011;19501;50.948;5.316;2022-12-18T08:20:22;50.65;;;18.77;;
33138;SDS011;19501;50.948;5.316;2022-12-18T08:22:47;45.08;;;18.58;;
33138;SDS011;19501;50.948;5.316;2022-12-18T08:25:13;44.28;;;18.30;;
33138;SDS011;19501;50.948;5.316;2022-12-18T08:27:39;42.50;;;20.00;;
33138;SDS011;19501;50.948;5.316;2022-12-18T08:30:05;46.55;;;18.05;;
33138;SDS011;19501;50.948;5.316;2022-12-18T08:32:32;40.95;;;18.10;;
33138;SDS011;19501;50.948;5.316;2022-12-18T08:34:58;43.72;;;19.48;;
33138;SDS011;19501;50.948;5.316;2022-12-18T08:37:24;44.58;;;19.65;;
33138;SDS011;19501;50.948;5.316;2022-12-18T08:39:50;45.05;;;20.17;;
33138;SDS011;19501;50.948;5.316;2022-12-18T08:42:15;45.97;;;19.52;;
33138;SDS011;19501;50.948;5.316;2022-12-18T08:45:00;49.22;;;19.20;;
33138;SDS011;19501;50.948;5.316;2022-12-18T08:47:26;50.45;;;19.58;;
33138;SDS011;19501;50.948;5.316;2022-12-18T08:49:52;42.40;;;19.13;;
33138;SDS011;19501;50.948;5.316;2022-12-18T08:52:17;50.42;;;18.63;;
33138;SDS011;19501;50.948;5.316;2022-12-18T08:54:44;47.03;;;18.80;;
33138;SDS011;19501;50.948;5.316;2022-12-18T08:57:09;48.22;;;20.33;;
33138;SDS011;19501;50.948;5.316;2022-12-18T08:59:36;46.28;;;19.67;;
33138;SDS011;19501;50.948;5.316;2022-12-18T09:02:01;46.55;;;19.20;;
33138;SDS011;19501;50.948;5.316;2022-12-18T09:04:27;45.72;;;18.77;;
33138;SDS011;19501;50.948;5.316;2022-12-18T09:06:53;41.85;;;18.70;;
33138;SDS011;19501;50.948;5.316;2022-12-18T09:09:18;39.50;;;18.45;;
33138;SDS011;19501;50.948;5.316;2022-12-18T09:11:44;40.95;;;16.98;;
33138;SDS011;19501;50.948;5.316;2022-12-18T09:14:10;40.92;;;18.65;;
33138;SDS011;19501;50.948;5.316;2022-12-18T09:16:36;39.85;;;17.25;;
33138;SDS011;19501;50.948;5.316;2022-12-18T09:19:03;39.33;;;17.90;;
33138;SDS011;19501;50.948;5.316;2022-12-18T09:21:30;48.53;;;20.63;;
33138;SDS011;19501;50.948;5.316;2022-12-18T09:23:58;42.88;;;17.70;;
33138;SDS011;19501;50.948;5.316;2022-12-18T09:26:24;42.03;;;17.88;;
33138;SDS011;19501;50.948;5.316;2022-12-18T09:28:51;46.40;;;18.02;;
33138;SDS011;19501;50.948;5.316;2022-12-18T09:31:20;43.88;;;19.10;;
33138;SDS011;19501;50.948;5.316;2022-12-18T09:33:47;42.67;;;18.50;;
33138;SDS011;19501;50.948;5.316;2022-12-18T09:36:14;44.42;;;19.75;;
33138;SDS011;19501;50.948;5.316;2022-12-18T09:38:41;49.17;;;20.73;;
33138;SDS011;19501;50.948;5.316;2022-12-18T09:44:11;49.28;;;21.15;;
33138;SDS011;19501;50.948;5.316;2022-12-18T09:46:53;40.40;;;19.23;;
33138;SDS011;19501;50.948;5.316;2022-12-18T09:49:35;41.25;;;18.33;;
33138;SDS011;19501;50.948;5.316;2022-12-18T09:52:11;49.28;;;18.88;;
33138;SDS011;19501;50.948;5.316;2022-12-18T09:54:42;47.38;;;19.70;;
33138;SDS011;19501;50.948;5.316;2022-12-18T09:57:13;41.47;;;17.90;;
33138;SDS011;19501;50.948;5.316;2022-12-18T09:59:46;45.78;;;20.10;;
33138;SDS011;19501;50.948;5.316;2022-12-18T10:02:22;45.20;;;19.90;;
33138;SDS011;19501;50.948;5.316;2022-12-18T10:04:56;45.67;;;19.92;;
33138;SDS011;19501;50.948;5.316;2022-12-18T10:07:35;42.28;;;18.67;;
33138;SDS011;19501;50.948;5.316;2022-12-18T10:16:16;46.85;;;20.63;;
33138;SDS011;19501;50.948;5.316;2022-12-18T10:21:26;42.45;;;20.00;;
33138;SDS011;19501;50.948;5.316;2022-12-18T10:26:42;42.90;;;18.83;;
33138;SDS011;19501;50.948;5.316;2022-12-18T10:29:10;51.25;;;22.60;;
33138;SDS011;19501;50.948;5.316;2022-12-18T10:31:38;48.30;;;21.15;;
33138;SDS011;19501;50.948;5.316;2022-12-18T10:34:09;61.97;;;26.95;;
33138;SDS011;19501;50.948;5.316;2022-12-18T10:36:37;47.95;;;22.38;;
33138;SDS011;19501;50.948;5.316;2022-12-18T10:39:18;49.90;;;21.92;;
33138;SDS011;19501;50.948;5.316;2022-12-18T10:41:49;50.88;;;23.98;;
33138;SDS011;19501;50.948;5.316;2022-12-18T10:44:21;48.03;;;19.90;;
33138;SDS011;19501;50.948;5.316;2022-12-18T10:46:55;46.30;;;21.10;;
33138;SDS011;19501;50.948;5.316;2022-12-18T10:49:29;49.65;;;19.95;;
33138;SDS011;19501;50.948;5.316;2022-12-18T10:54:32;48.08;;;21.58;;
33138;SDS011;19501;50.948;5.316;2022-12-18T10:57:16;46.15;;;21.92;;
33138;SDS011;19501;50.948;5.316;2022-12-18T10:59:54;48.53;;;22.50;;
33138;SDS011;19501;50.948;5.316;2022-12-18T11:02:26;49.60;;;23.27;;
33138;SDS011;19501;50.948;5.316;2022-12-18T11:05:03;49.17;;;23.25;;
33138;SDS011;19501;50.948;5.316;2022-12-18T11:10:25;48.67;;;22.48;;
33138;SDS011;19501;50.948;5.316;2022-12-18T11:13:19;51.42;;;23.80;;
33138;SDS011;19501;50.948;5.316;2022-12-18T11:15:50;50.25;;;23.20;;
33138;SDS011;19501;50.948;5.316;2022-12-18T11:20:44;45.70;;;21.90;;
33138;SDS011;19501;50.948;5.316;2022-12-18T11:23:17;49.75;;;22.00;;
33138;SDS011;19501;50.948;5.316;2022-12-18T11:26:05;46.22;;;20.60;;
33138;SDS011;19501;50.948;5.316;2022-12-18T11:28:35;42.97;;;20.73;;
33138;SDS011;19501;50.948;5.316;2022-12-18T11:31:18;45.60;;;20.83;;
33138;SDS011;19501;50.948;5.316;2022-12-18T11:34:01;49.72;;;22.02;;
33138;SDS011;19501;50.948;5.316;2022-12-18T11:36:28;46.38;;;21.90;;
33138;SDS011;19501;50.948;5.316;2022-12-18T11:38:58;48.83;;;21.02;;
33138;SDS011;19501;50.948;5.316;2022-12-18T11:41:50;41.17;;;19.42;;
33138;SDS011;19501;50.948;5.316;2022-12-18T11:47:52;43.45;;;20.38;;
33138;SDS011;19501;50.948;5.316;2022-12-18T11:50:49;39.53;;;19.23;;
33138;SDS011;19501;50.948;5.316;2022-12-18T11:53:17;50.75;;;20.27;;
33138;SDS011;19501;50.948;5.316;2022-12-18T12:09:37;45.97;;;21.05;;
33138;SDS011;19501;50.948;5.316;2022-12-18T12:18:28;43.45;;;20.77;;
33138;SDS011;19501;50.948;5.316;2022-12-18T12:21:02;52.88;;;21.98;;
33138;SDS011;19501;50.948;5.316;2022-12-18T12:29:25;42.45;;;19.70;;
33138;SDS011;19501;50.948;5.316;2022-12-18T12:32:25;43.33;;;19.73;;
33138;SDS011;19501;50.948;5.316;2022-12-18T12:40:40;36.78;;;18.40;;
33138;SDS011;19501;50.948;5.316;2022-12-18T12:43:22;42.47;;;19.08;;
33138;SDS011;19501;50.948;5.316;2022-12-18T12:46:04;41.80;;;18.83;;
33138;SDS011;19501;50.948;5.316;2022-12-18T12:51:31;42.03;;;19.92;;
33138;SDS011;19501;50.948;5.316;2022-12-18T12:53:59;43.35;;;18.42;;
33138;SDS011;19501;50.948;5.316;2022-12-18T13:01:56;35.63;;;15.50;;
33138;SDS011;19501;50.948;5.316;2022-12-18T13:04:43;44.93;;;20.43;;
33138;SDS011;19501;50.948;5.316;2022-12-18T13:10:14;42.60;;;19.95;;
33138;SDS011;19501;50.948;5.316;2022-12-18T13:12:57;46.45;;;20.73;;
33138;SDS011;19501;50.948;5.316;2022-12-18T13:15:47;45.35;;;21.70;;
33138;SDS011;19501;50.948;5.316;2022-12-18T13:18:35;42.85;;;20.88;;
33138;SDS011;19501;50.948;5.316;2022-12-18T13:23:49;50.75;;;21.98;;
33138;SDS011;19501;50.948;5.316;2022-12-18T13:31:11;43.05;;;20.10;;
33138;SDS011;19501;50.948;5.316;2022-12-18T13:39:09;44.03;;;19.13;;
33138;SDS011;19501;50.948;5.316;2022-12-18T13:47:05;42.75;;;19.88;;
33138;SDS011;19501;50.948;5.316;2022-12-18T13:49:53;42.15;;;19.48;;
33138;SDS011;19501;50.948;5.316;2022-12-18T13:52:24;39.67;;;18.95;;
33138;SDS011;19501;50.948;5.316;2022-12-18T13:54:55;40.97;;;19.90;;
33138;SDS011;19501;50.948;5.316;2022-12-18T14:02:50;48.08;;;19.23;;
33138;SDS011;19501;50.948;5.316;2022-12-18T14:05:23;40.70;;;18.67;;
33138;SDS011;19501;50.948;5.316;2022-12-18T14:07:51;37.65;;;18.27;;
33138;SDS011;19501;50.948;5.316;2022-12-18T14:10:17;44.63;;;18.95;;
33138;SDS011;19501;50.948;5.316;2022-12-18T14:12:45;42.80;;;19.90;;
33138;SDS011;19501;50.948;5.316;2022-12-18T14:17:52;41.70;;;18.13;;
33138;SDS011;19501;50.948;5.316;2022-12-18T14:20:24;44.67;;;19.73;;
33138;SDS011;19501;50.948;5.316;2022-12-18T14:22:52;45.15;;;20.70;;
33138;SDS011;19501;50.948;5.316;2022-12-18T14:25:25;40.47;;;19.08;;
33138;SDS011;19501;50.948;5.316;2022-12-18T14:30:36;44.42;;;19.30;;
33138;SDS011;19501;50.948;5.316;2022-12-18T14:33:14;45.30;;;20.65;;
33138;SDS011;19501;50.948;5.316;2022-12-18T14:40:58;45.17;;;20.08;;
33138;SDS011;19501;50.948;5.316;2022-12-18T14:43:35;42.60;;;19.20;;
33138;SDS011;19501;50.948;5.316;2022-12-18T14:46:03;45.17;;;20.10;;
33138;SDS011;19501;50.948;5.316;2022-12-18T14:48:37;45.63;;;20.65;;
33138;SDS011;19501;50.948;5.316;2022-12-18T14:56:32;47.60;;;21.48;;
33138;SDS011;19501;50.948;5.316;2022-12-18T14:59:03;44.50;;;19.23;;
33138;SDS011;19501;50.948;5.316;2022-12-18T15:03:57;43.63;;;18.63;;
33138;SDS011;19501;50.948;5.316;2022-12-18T15:08:56;46.33;;;19.40;;
33138;SDS011;19501;50.948;5.316;2022-12-18T15:11:33;40.53;;;17.33;;
33138;SDS011;19501;50.948;5.316;2022-12-18T15:16:59;45.50;;;18.15;;
33138;SDS011;19501;50.948;5.316;2022-12-18T15:19:40;42.20;;;18.45;;
33138;SDS011;19501;50.948;5.316;2022-12-18T15:24:47;41.40;;;17.23;;
33138;SDS011;19501;50.948;5.316;2022-12-18T15:30:18;45.28;;;19.40;;
33138;SDS011;19501;50.948;5.316;2022-12-18T15:32:46;48.60;;;20.50;;
33138;SDS011;19501;50.948;5.316;2022-12-18T15:35:17;42.10;;;18.30;;
33138;SDS011;19501;50.948;5.316;2022-12-18T15:37:46;48.50;;;19.02;;
33138;SDS011;19501;50.948;5.316;2022-12-18T15:40:20;52.13;;;21.17;;
33138;SDS011;19501;50.948;5.316;2022-12-18T15:42:48;46.58;;;18.65;;
33138;SDS011;19501;50.948;5.316;2022-12-18T15:45:34;43.58;;;17.60;;
33138;SDS011;19501;50.948;5.316;2022-12-18T15:48:00;42.83;;;18.02;;
33138;SDS011;19501;50.948;5.316;2022-12-18T15:50:26;43.58;;;17.52;;
33138;SDS011;19501;50.948;5.316;2022-12-18T15:52:52;44.97;;;18.17;;
33138;SDS011;19501;50.948;5.316;2022-12-18T15:55:21;43.67;;;19.10;;
33138;SDS011;19501;50.948;5.316;2022-12-18T15:58:07;45.40;;;18.15;;
33138;SDS011;19501;50.948;5.316;2022-12-18T16:00:35;44.58;;;18.33;;
33138;SDS011;19501;50.948;5.316;2022-12-18T16:03:03;44.95;;;18.33;;
33138;SDS011;19501;50.948;5.316;2022-12-18T16:05:30;44.20;;;18.73;;
33138;SDS011;19501;50.948;5.316;2022-12-18T16:07:57;46.10;;;18.67;;
33138;SDS011;19501;50.948;5.316;2022-12-18T16:10:23;46.17;;;19.13;;
33138;SDS011;19501;50.948;5.316;2022-12-18T16:12:51;45.10;;;19.15;;
33138;SDS011;19501;50.948;5.316;2022-12-18T16:15:17;51.67;;;20.75;;
33138;SDS011;19501;50.948;5.316;2022-12-18T16:17:43;48.47;;;20.17;;
33138;SDS011;19501;50.948;5.316;2022-12-18T16:20:12;42.35;;;17.52;;
33138;SDS011;19501;50.948;5.316;2022-12-18T16:22:43;47.72;;;18.98;;
33138;SDS011;19501;50.948;5.316;2022-12-18T16:25:25;52.20;;;21.08;;
33138;SDS011;19501;50.948;5.316;2022-12-18T16:27:53;44.03;;;18.40;;
33138;SDS011;19501;50.948;5.316;2022-12-18T16:30:24;44.17;;;19.98;;
33138;SDS011;19501;50.948;5.316;2022-12-18T16:32:55;46.35;;;18.73;;
33138;SDS011;19501;50.948;5.316;2022-12-18T16:35:24;48.22;;;19.92;;
33138;SDS011;19501;50.948;5.316;2022-12-18T16:37:51;48.03;;;19.75;;
33138;SDS011;19501;50.948;5.316;2022-12-18T16:40:17;47.30;;;19.50;;
33138;SDS011;19501;50.948;5.316;2022-12-18T16:42:46;46.22;;;20.13;;
33138;SDS011;19501;50.948;5.316;2022-12-18T16:45:13;49.70;;;20.75;;
33138;SDS011;19501;50.948;5.316;2022-12-18T16:47:41;45.65;;;19.88;;
33138;SDS011;19501;50.948;5.316;2022-12-18T16:50:07;47.47;;;20.70;;
33138;SDS011;19501;50.948;5.316;2022-12-18T16:52:34;50.92;;;21.17;;
33138;SDS011;19501;50.948;5.316;2022-12-18T16:55:00;48.97;;;20.00;;
33138;SDS011;19501;50.948;5.316;2022-12-18T16:57:26;50.47;;;21.25;;
33138;SDS011;19501;50.948;5.316;2022-12-18T16:59:52;47.42;;;20.50;;
33138;SDS011;19501;50.948;5.316;2022-12-18T17:02:22;47.08;;;21.17;;
33138;SDS011;19501;50.948;5.316;2022-12-18T17:04:49;46.35;;;20.77;;